Time;durP1;ratioP1;P1;durP2;ratioP2;P2;SDS_P1;SDS_P2;PMS_P1;PMS_P2;Temp;Humidity;BMP_temperature;BMP_pressure;BME280_temperature;BME280_humidity;BME280_pressure;Samples;Min_cycle;Max_cycle;Signal;HPM_P1;HPM_P2
2022/10/29 00:00:27;;;;;;;67.47;63.78;;;;;;;15.82;73.99;102327.03;4997707;28;102469;-53
2022/10/29 00:02:55;;;;;;;79.13;74.90;;;;;;;15.82;73.80;102319.63;5010461;28;102666;-53
2022/10/29 00:05:21;;;;;;;71.30;67.45;;;;;;;15.82;73.94;102324.28;5017720;28;102203;-53
2022/10/29 00:07:48;;;;;;;67.38;63.65;;;;;;;15.81;73.60;102317.16;5010224;28;103872;-53
2022/10/29 00:10:15;;;;;;;76.15;72.10;;;;;;;15.82;73.78;102318.78;5016431;28;102168;-53
2022/10/29 00:12:42;;;;;;;72.15;68.35;;;;;;;15.82;73.69;102318.78;5015737;28;101942;-53
2022/10/29 00:15:10;;;;;;;68.53;64.85;;;;;;;15.82;73.85;102318.78;5004583;28;102209;-53
2022/10/29 00:17:36;;;;;;;68.13;64.50;;;;;;;15.82;73.56;102310.56;5004475;28;103887;-53
2022/10/29 00:20:06;;;;;;;72.95;69.18;;;;;;;15.82;73.87;102313.31;5011562;28;102066;-53
2022/10/29 00:22:33;;;;;;;70.15;66.32;;;;;;;15.81;73.69;102308.91;5003287;28;102255;-53
2022/10/29 00:25:00;;;;;;;69.30;65.50;;;;;;;15.81;73.48;102314.41;5017065;28;102171;-53
2022/10/29 00:27:27;;;;;;;65.88;62.30;;;;;;;15.81;73.40;102306.19;5015013;28;104076;-53
2022/10/29 00:29:54;;;;;;;70.50;66.72;;;;;;;15.81;73.40;102300.69;5014420;28;102264;-53
2022/10/29 00:32:23;;;;;;;69.18;65.35;;;;;;;15.82;74.02;102307.81;5030529;27;102289;-53
2022/10/29 00:34:49;;;;;;;66.93;63.40;;;;;;;15.80;73.88;102310.03;5036259;27;102466;-53
2022/10/29 00:37:18;;;;;;;68.60;64.95;;;;;;;15.81;73.66;102300.69;5035866;27;103981;-53
2022/10/29 00:39:44;;;;;;;71.50;67.75;;;;;;;15.80;73.52;102296.28;5021803;27;102276;-53
2022/10/29 00:42:14;;;;;;;71.63;67.78;;;;;;;15.81;73.38;102297.94;5034331;27;102528;-52
2022/10/29 00:44:41;;;;;;;67.22;63.63;;;;;;;15.81;73.68;102296.00;5023156;27;102514;-52
2022/10/29 00:47:18;;;;;;;80.13;75.90;;;;;;;15.81;73.62;102295.19;5030320;27;103824;-53
2022/10/29 00:49:48;;;;;;;74.53;70.50;;;;;;;15.81;73.58;102296.00;5014166;28;102267;-53
2022/10/29 00:52:15;;;;;;;;;;;;;;;15.80;73.95;102288.06;4995511;28;102379;-56
2022/10/29 00:54:46;;;;;;;69.95;66.18;;;;;;;15.80;73.47;102293.56;5034100;27;102376;-53
2022/10/29 00:57:16;;;;;;;69.45;65.75;;;;;;;15.81;73.93;102292.44;5033598;27;104054;-53
2022/10/29 00:59:45;;;;;;;71.68;67.78;;;;;;;15.81;73.96;102284.22;5034433;27;102213;-53
2022/10/29 01:02:11;;;;;;;73.35;69.35;;;;;;;15.81;73.74;102295.19;5035431;27;102364;-53
2022/10/29 01:04:39;;;;;;;78.20;74.05;;;;;;;15.80;74.04;102288.06;5034904;27;102300;-53
2022/10/29 01:07:06;;;;;;;71.22;67.43;;;;;;;15.80;73.61;102277.09;5024248;27;104150;-53
2022/10/29 01:09:33;;;;;;;66.15;62.63;;;;;;;15.80;73.77;102286.13;5009119;27;102068;-53
2022/10/29 01:12:18;;;;;;;73.63;69.72;;;;;;;15.79;73.73;102270.75;5022465;27;102341;-52
2022/10/29 01:14:55;;;;;;;66.07;62.42;;;;;;;15.80;73.72;102271.59;5012661;28;102393;-53
2022/10/29 01:17:29;;;;;;;73.70;69.80;;;;;;;15.79;73.85;102276.22;5013955;28;103922;-53
2022/10/29 01:20:24;;;;;;;71.38;67.55;;;;;;;15.79;73.44;102280.91;5014520;28;104648;-52
2022/10/29 01:23:05;;;;;;;74.60;70.55;;;;;;;15.80;73.59;102283.41;5014211;28;102208;-53
2022/10/29 01:25:54;;;;;;;68.55;64.93;;;;;;;15.77;73.55;102281.19;5015806;28;102077;-52
2022/10/29 01:28:38;;;;;;;76.63;72.60;;;;;;;15.78;73.73;102279.25;5014513;28;103937;-53
2022/10/29 01:31:18;;;;;;;71.38;67.65;;;;;;;15.78;74.12;102271.84;5015477;28;102253;-53
2022/10/29 01:33:54;;;;;;;72.72;68.88;;;;;;;15.78;73.95;102269.09;5013692;28;102696;-53
2022/10/29 01:36:28;;;;;;;67.25;63.58;;;;;;;15.78;74.04;102273.75;5016121;28;102324;-53
2022/10/29 01:39:04;;;;;;;67.55;63.90;;;;;;;15.78;74.12;102266.34;5011100;28;104113;-53
2022/10/29 01:41:39;;;;;;;74.95;70.90;;;;;;;15.78;73.68;102262.78;5014404;28;102399;-53
2022/10/29 01:44:13;;;;;;;76.85;72.75;;;;;;;15.78;73.52;102263.59;5013499;28;102107;-53
2022/10/29 01:46:45;;;;;;;71.40;67.43;;;;;;;15.78;73.56;102262.78;5009326;28;102324;-53
2022/10/29 01:49:17;;;;;;;73.05;69.22;;;;;;;15.77;73.87;102261.16;5012587;28;103880;-53
2022/10/29 01:51:45;;;;;;;68.65;64.88;;;;;;;15.78;73.56;102251.81;5012407;28;102334;-53
2022/10/29 01:54:12;;;;;;;68.43;64.70;;;;;;;15.77;74.08;102253.72;5008279;28;102345;-53
2022/10/29 01:56:39;;;;;;;66.65;63.03;;;;;;;15.77;73.54;102255.66;5024500;27;103300;-53
2022/10/29 01:59:08;;;;;;;70.97;67.22;;;;;;;15.77;73.64;102255.66;5004584;28;103197;-52
2022/10/29 02:01:50;;;;;;;72.72;68.88;;;;;;;15.77;73.77;102263.88;5014856;28;102333;-52
2022/10/29 02:04:37;;;;;;;70.68;66.95;;;;;;;15.76;74.06;102254.84;5013702;28;102266;-53
2022/10/29 02:07:12;;;;;;;67.90;64.22;;;;;;;15.77;73.66;102261.16;5014632;28;102471;-53
2022/10/29 02:09:45;;;;;;;73.05;69.15;;;;;;;15.76;73.66;102259.47;5003455;28;107957;-53
2022/10/29 02:12:22;;;;;;;67.35;63.70;;;;;;;15.76;73.40;102253.97;4999168;28;102534;-53
2022/10/29 02:14:52;;;;;;;73.65;69.72;;;;;;;15.77;73.69;102250.16;5032935;27;102609;-53
2022/10/29 02:17:20;;;;;;;71.72;67.90;;;;;;;15.77;73.54;102255.66;5019395;27;102183;-53
2022/10/29 02:19:47;;;;;;;69.28;65.68;;;;;;;15.78;73.91;102254.56;5009826;28;104101;-53
2022/10/29 02:22:13;;;;;;;71.55;67.78;;;;;;;15.76;73.78;102243.84;5015236;28;102552;-53
2022/10/29 02:24:40;;;;;;;72.95;69.03;;;;;;;15.75;73.73;102249.59;5008568;28;102427;-53
2022/10/29 02:27:08;;;;;;;69.38;65.78;;;;;;;15.76;73.63;102246.59;5017173;27;102272;-53
2022/10/29 02:29:34;;;;;;;69.53;65.80;;;;;;;15.76;74.08;102243.00;5008839;28;103931;-53
2022/10/29 02:32:01;;;;;;;71.53;67.80;;;;;;;15.76;73.95;102243.84;5006890;28;102176;-52
2022/10/29 02:34:28;;;;;;;72.25;68.47;;;;;;;15.77;74.02;102244.69;5013460;28;102079;-53
2022/10/29 02:36:55;;;;;;;75.47;71.47;;;;;;;15.76;73.86;102240.25;5014805;28;102050;-53
2022/10/29 02:39:21;;;;;;;70.53;66.82;;;;;;;15.75;73.61;102235.88;5007217;28;103802;-53
2022/10/29 02:41:48;;;;;;;68.85;65.20;;;;;;;15.75;73.58;102241.38;4994759;28;102074;-53
2022/10/29 02:44:15;;;;;;;68.53;64.85;;;;;;;15.76;74.11;102248.50;5006987;28;101913;-53
2022/10/29 02:46:43;;;;;;;73.33;69.47;;;;;;;15.76;73.53;102240.25;5006158;28;102410;-53
2022/10/29 02:49:09;;;;;;;66.78;63.15;;;;;;;15.76;73.53;102248.50;5003225;28;103889;-53
2022/10/29 02:51:37;;;;;;;71.93;68.07;;;;;;;15.76;73.50;102248.50;4999583;28;102390;-53
2022/10/29 02:54:04;;;;;;;76.40;72.32;;;;;;;15.75;73.84;102244.09;4994442;28;102204;-53
2022/10/29 02:56:31;;;;;;;72.60;68.75;;;;;;;15.75;73.62;102241.38;4995413;28;102172;-53
2022/10/29 02:58:58;;;;;;;73.35;69.45;;;;;;;15.75;73.68;102244.94;5010830;28;103842;-52
2022/10/29 03:01:25;;;;;;;75.85;71.93;;;;;;;15.76;73.79;102238.38;5013214;28;102811;-53
2022/10/29 03:03:51;;;;;;;76.55;72.47;;;;;;;15.77;73.83;102244.69;5014094;28;102188;-53
2022/10/29 03:06:18;;;;;;;72.93;69.05;;;;;;;15.76;73.74;102237.50;5014977;28;102127;-52
2022/10/29 03:08:47;;;;;;;65.95;62.45;;;;;;;15.76;73.75;102237.50;5011836;28;103933;-53
2022/10/29 03:11:13;;;;;;;72.03;68.07;;;;;;;15.76;73.78;102237.50;5012625;28;102684;-53
2022/10/29 03:13:40;;;;;;;75.82;71.80;;;;;;;15.75;73.74;102236.69;5013348;28;102359;-53
2022/10/29 03:16:07;;;;;;;68.55;64.90;;;;;;;15.74;73.62;102242.47;5016356;28;102145;-52
2022/10/29 03:18:34;;;;;;;70.43;66.70;;;;;;;15.76;73.51;102240.25;5003333;28;103976;-53
2022/10/29 03:21:01;;;;;;;73.43;69.50;;;;;;;15.76;74.01;102229.28;5000212;28;101897;-52
2022/10/29 03:23:27;;;;;;;72.25;68.40;;;;;;;15.75;73.69;102233.13;5017095;28;102010;-53
2022/10/29 03:25:55;;;;;;;68.90;65.20;;;;;;;15.74;73.63;102235.06;5009472;28;102687;-53
2022/10/29 03:28:23;;;;;;;72.63;68.67;;;;;;;15.74;73.72;102234.22;5008371;28;103927;-53
2022/10/29 03:30:50;;;;;;;71.38;67.63;;;;;;;15.75;73.94;102230.38;5016935;28;102240;-53
2022/10/29 03:33:16;;;;;;;73.45;69.55;;;;;;;15.74;74.05;102231.47;5016684;28;102450;-53
2022/10/29 03:35:43;;;;;;;76.60;72.57;;;;;;;15.74;73.91;102240.53;5017079;28;102862;-53
2022/10/29 03:38:10;;;;;;;69.88;66.15;;;;;;;15.74;73.97;102226.00;5015720;28;103997;-53
2022/10/29 03:40:36;;;;;;;70.13;66.40;;;;;;;15.74;74.00;102226.00;5017179;28;102373;-53
2022/10/29 03:43:04;;;;;;;82.80;78.40;;;;;;;15.75;74.12;102230.38;5016534;28;102472;-53
2022/10/29 03:45:31;;;;;;;71.57;67.80;;;;;;;15.75;73.67;102225.72;5002622;28;102225;-53
2022/10/29 03:48:02;;;;;;;;;;;;;;;15.74;73.81;102213.09;5005070;28;104092;-53
2022/10/29 03:50:29;;;;;;;64.25;60.90;;;;;;;15.75;73.82;102209.25;5012608;28;103465;-55
2022/10/29 03:52:55;;;;;;;74.35;70.38;;;;;;;15.74;73.47;102204.03;5012500;28;102364;-52
2022/10/29 03:55:22;;;;;;;72.30;68.53;;;;;;;15.74;73.91;102201.28;4999623;28;102551;-53
2022/10/29 03:57:49;;;;;;;71.32;67.30;;;;;;;15.75;74.20;102205.69;5011663;28;103907;-52
2022/10/29 04:00:17;;;;;;;70.13;66.43;;;;;;;15.75;73.85;102211.16;5011196;28;102377;-53
2022/10/29 04:02:43;;;;;;;73.95;70.00;;;;;;;15.75;73.93;102224.91;5000076;28;102509;-53
2022/10/29 04:05:10;;;;;;;73.65;69.82;;;;;;;15.74;73.82;102212.28;5016450;27;102526;-52
2022/10/29 04:07:36;;;;;;;69.30;65.63;;;;;;;15.73;74.08;102213.38;5015239;28;103948;-53
2022/10/29 04:10:03;;;;;;;70.60;66.88;;;;;;;15.73;74.16;102205.13;5009509;28;103222;-53
2022/10/29 04:12:31;;;;;;;73.70;69.85;;;;;;;15.74;73.71;102204.03;5003312;28;102165;-53
2022/10/29 04:14:58;;;;;;;72.15;68.30;;;;;;;15.74;74.06;102204.03;5016886;28;102315;-53
2022/10/29 04:17:26;;;;;;;73.18;69.32;;;;;;;15.74;73.84;102206.78;5014645;28;104348;-53
2022/10/29 04:19:52;;;;;;;71.38;67.57;;;;;;;15.74;73.69;102199.38;4998323;28;102309;-52
2022/10/29 04:22:19;;;;;;;71.00;67.25;;;;;;;15.75;74.03;102203.75;4996134;28;102374;-52
2022/10/29 04:24:46;;;;;;;76.30;72.15;;;;;;;15.73;73.77;102197.72;5002167;28;102707;-53
2022/10/29 04:27:13;;;;;;;74.10;70.18;;;;;;;15.74;74.12;102206.78;5030146;27;104010;-53
2022/10/29 04:29:40;;;;;;;73.80;69.88;;;;;;;15.73;73.88;102210.63;4997369;28;101906;-53
2022/10/29 04:32:07;;;;;;;70.05;66.28;;;;;;;15.73;74.25;102199.66;5007545;28;102030;-53
2022/10/29 04:34:35;;;;;;;66.13;62.60;;;;;;;15.73;73.89;102194.16;5016862;28;102324;-53
2022/10/29 04:37:02;;;;;;;81.13;76.85;;;;;;;15.73;74.04;102199.66;5013036;28;108064;-53
2022/10/29 04:39:28;;;;;;;72.45;68.65;;;;;;;15.72;73.97;102198.78;5009357;27;102285;-53
2022/10/29 04:41:54;;;;;;;79.32;75.18;;;;;;;15.72;73.86;102201.53;5020327;27;102181;-54
2022/10/29 04:44:21;;;;;;;73.47;69.55;;;;;;;15.73;73.99;102196.91;5016248;28;102218;-52
2022/10/29 04:46:48;;;;;;;76.32;72.30;;;;;;;15.72;74.07;102204.28;5014049;28;104121;-53
2022/10/29 04:49:14;;;;;;;74.25;70.30;;;;;;;15.73;73.89;102210.63;4996175;28;102307;-53
2022/10/29 04:51:42;;;;;;;70.20;66.47;;;;;;;15.72;74.04;102214.44;5008846;28;102386;-53
2022/10/29 04:54:09;;;;;;;70.70;66.93;;;;;;;15.72;74.16;102217.19;5008524;28;102209;-53
2022/10/29 04:56:35;;;;;;;73.97;70.07;;;;;;;15.73;73.77;102221.59;4997968;28;104063;-53
2022/10/29 04:59:01;;;;;;;74.88;70.90;;;;;;;15.73;74.08;102221.59;5034325;27;102155;-53
2022/10/29 05:01:29;;;;;;;77.43;73.32;;;;;;;15.73;73.72;102210.63;5026613;27;102176;-53
2022/10/29 05:03:55;;;;;;;78.97;74.80;;;;;;;15.73;73.94;102205.13;5035613;27;102481;-53
2022/10/29 05:06:22;;;;;;;75.05;71.10;;;;;;;15.72;74.15;102215.25;5018420;27;103937;-52
2022/10/29 05:08:50;;;;;;;81.63;77.32;;;;;;;15.71;73.80;102213.63;5007884;28;102243;-52
2022/10/29 05:11:17;;;;;;;72.47;68.50;;;;;;;15.71;73.67;102218.28;5010569;28;102409;-53
2022/10/29 05:13:44;;;;;;;73.15;69.28;;;;;;;15.72;73.90;102226.25;5016885;28;102290;-53
2022/10/29 05:16:13;;;;;;;70.55;66.80;;;;;;;15.71;74.05;102224.59;5007042;28;103927;-52
2022/10/29 05:18:41;;;;;;;76.40;72.30;;;;;;;15.71;73.85;102224.59;5003160;28;102505;-52
2022/10/29 05:21:08;;;;;;;76.25;72.20;;;;;;;15.72;73.68;102222.69;5011057;28;102987;-52
2022/10/29 05:23:35;;;;;;;77.18;73.05;;;;;;;15.71;74.04;102230.09;5013146;28;102169;-53
2022/10/29 05:26:03;;;;;;;70.50;66.70;;;;;;;15.73;73.87;102227.09;5012169;28;103955;-53
2022/10/29 05:28:29;;;;;;;74.55;70.55;;;;;;;15.70;73.79;102220.22;5013810;28;102303;-53
2022/10/29 05:31:00;;;;;;;67.78;64.13;;;;;;;15.71;74.02;102219.13;5013045;28;102566;-53
2022/10/29 05:33:27;;;;;;;75.75;71.65;;;;;;;15.73;74.01;102221.59;5013014;28;102431;-52
2022/10/29 05:35:53;;;;;;;83.70;79.30;;;;;;;15.76;74.08;102212.81;5013766;28;103921;-53
2022/10/29 05:38:21;;;;;;;75.93;71.83;;;;;;;15.75;73.91;102216.66;5012384;28;102166;-53
2022/10/29 05:40:49;;;;;;;73.47;69.53;;;;;;;15.77;73.92;102214.47;5008269;28;102216;-53
2022/10/29 05:43:17;;;;;;;70.15;66.28;;;;;;;15.78;73.63;102213.38;5010062;28;102333;-52
2022/10/29 05:45:44;;;;;;;66.90;63.30;;;;;;;15.77;73.70;102219.97;5002442;28;103914;-53
2022/10/29 05:48:11;;;;;;;74.25;70.25;;;;;;;15.77;74.01;102230.94;5004854;28;102314;-53
2022/10/29 05:50:38;;;;;;;72.20;68.38;;;;;;;15.76;74.17;102218.28;5004536;28;103013;-53
2022/10/29 05:53:06;;;;;;;67.47;63.75;;;;;;;15.78;73.78;102238.91;5005391;28;103348;-52
2022/10/29 05:55:34;;;;;;;71.33;67.57;;;;;;;15.77;74.34;102236.44;5000845;28;104045;-53
2022/10/29 05:58:03;;;;;;;67.33;63.67;;;;;;;15.78;73.81;102229.84;5008606;28;102414;-53
2022/10/29 06:00:32;;;;;;;;;;;;;;;15.78;73.83;102229.84;5005265;28;102456;-53
2022/10/29 06:02:58;;;;;;;;;;;;;;;15.77;74.44;102236.44;5015964;28;102289;-53
2022/10/29 06:05:25;;;;;;;76.03;71.90;;;;;;;15.77;74.25;102233.69;5019849;27;103961;-53
2022/10/29 06:07:53;;;;;;;72.05;68.15;;;;;;;15.77;73.86;102236.44;5020925;27;102880;-53
2022/10/29 06:10:20;;;;;;;75.93;71.72;;;;;;;15.77;74.48;102234.50;5018049;27;102694;-53
2022/10/29 06:12:46;;;;;;;69.90;66.03;;;;;;;15.77;74.23;102233.69;5015070;28;102417;-53
2022/10/29 06:15:13;;;;;;;74.97;70.93;;;;;;;15.77;74.16;102236.44;5001252;28;103957;-52
2022/10/29 06:17:42;;;;;;;72.80;68.90;;;;;;;15.78;74.27;102235.34;5006878;27;102243;-53
2022/10/29 06:20:10;;;;;;;69.70;65.83;;;;;;;15.78;74.28;102238.09;5001041;28;102186;-53
2022/10/29 06:22:37;;;;;;;70.13;66.38;;;;;;;15.79;73.93;102242.47;4998033;28;102365;-53
2022/10/29 06:25:04;;;;;;;78.18;74.05;;;;;;;15.78;74.59;102240.81;4993261;28;103762;-53
2022/10/29 06:27:31;;;;;;;75.78;71.78;;;;;;;15.80;74.23;102241.41;5002808;28;102036;-53
2022/10/29 06:29:58;;;;;;;77.07;72.90;;;;;;;15.78;74.09;102246.31;5003062;28;102079;-52
2022/10/29 06:32:24;;;;;;;76.82;72.65;;;;;;;15.79;74.50;102242.47;5014218;28;102167;-53
2022/10/29 06:34:52;;;;;;;72.30;68.45;;;;;;;15.79;74.12;102247.97;5016710;27;103704;-53
2022/10/29 06:37:19;;;;;;;76.00;71.93;;;;;;;15.79;74.38;102246.03;5005698;28;102204;-53
2022/10/29 06:39:46;;;;;;;76.97;72.85;;;;;;;15.81;73.63;102245.78;4999738;28;102351;-53
2022/10/29 06:42:13;;;;;;;73.95;69.95;;;;;;;15.81;74.00;102240.28;5009202;28;102113;-53
2022/10/29 06:44:40;;;;;;;69.72;65.93;;;;;;;15.82;73.62;102236.44;5011075;28;103844;-53
2022/10/29 06:47:08;;;;;;;76.53;72.30;;;;;;;15.83;73.78;102229.84;5005611;28;102392;-53
2022/10/29 06:49:35;;;;;;;71.28;66.97;;;;;;;15.83;73.92;102232.59;5006790;28;103411;-53
2022/10/29 06:52:03;;;;;;;70.82;66.95;;;;;;;15.83;73.72;102233.44;5014823;27;102422;-53
2022/10/29 06:54:29;;;;;;;80.63;76.30;;;;;;;15.84;73.86;102226.03;5015094;28;106555;-53
2022/10/29 06:56:56;;;;;;;74.90;70.90;;;;;;;15.85;73.55;102224.94;5012326;27;102092;-53
2022/10/29 06:59:23;;;;;;;74.22;70.20;;;;;;;15.85;73.67;102230.41;4994763;28;102404;-53
2022/10/29 07:01:49;;;;;;;73.80;69.88;;;;;;;15.87;73.99;102222.75;5008286;28;102135;-53
2022/10/29 07:04:22;;;;;;;71.70;67.72;;;;;;;15.89;73.84;102231.53;5019467;27;103993;-53
2022/10/29 07:06:49;;;;;;;74.53;70.45;;;;;;;15.89;73.63;102225.22;5035565;27;102213;-53
2022/10/29 07:09:20;;;;;;;77.68;73.57;;;;;;;15.89;73.74;102223.28;5024136;27;102285;-53
2022/10/29 07:11:47;;;;;;;67.55;63.85;;;;;;;15.90;73.90;102222.19;5014943;28;102285;-53
2022/10/29 07:14:15;;;;;;;76.60;72.47;;;;;;;15.90;73.87;102227.69;5014106;28;103768;-53
2022/10/29 07:16:42;;;;;;;69.78;65.95;;;;;;;15.91;73.80;102228.53;5023267;28;102178;-53
2022/10/29 07:19:08;;;;;;;72.93;68.97;;;;;;;15.92;73.75;102232.91;5019375;27;102193;-53
2022/10/29 07:21:35;;;;;;;73.53;69.53;;;;;;;15.92;73.97;102225.50;5021638;27;102445;-53
2022/10/29 07:24:02;;;;;;;75.88;71.85;;;;;;;15.93;74.02;102227.13;5028454;27;103931;-53
2022/10/29 07:26:30;;;;;;;78.72;74.43;;;;;;;15.94;73.94;102228.81;5035320;27;102186;-53
2022/10/29 07:28:57;;;;;;;70.65;66.82;;;;;;;15.96;73.94;102239.50;5034322;27;102309;-53
2022/10/29 07:31:24;;;;;;;75.50;71.43;;;;;;;15.96;73.63;102229.34;5035041;27;102322;-53
2022/10/29 07:33:50;;;;;;;78.88;74.63;;;;;;;15.98;73.89;102234.59;5025484;27;104012;-53
2022/10/29 07:36:17;;;;;;;75.63;71.53;;;;;;;15.98;73.42;102238.16;5021541;28;102062;-53
2022/10/29 07:38:44;;;;;;;78.22;73.85;;;;;;;15.97;73.48;102228.25;5029095;27;102894;-53
2022/10/29 07:41:10;;;;;;;74.63;70.60;;;;;;;15.98;73.85;102235.41;5033785;27;102252;-53
2022/10/29 07:43:38;;;;;;;71.00;67.28;;;;;;;16.00;73.43;102237.88;5035236;27;103925;-53
2022/10/29 07:46:05;;;;;;;69.17;65.43;;;;;;;16.00;73.92;102237.88;5037106;27;102044;-53
2022/10/29 07:48:38;;;;;;;67.97;64.25;;;;;;;16.00;73.71;102237.88;5036488;27;102504;-53
2022/10/29 07:51:04;;;;;;;72.13;68.20;;;;;;;16.00;73.84;102244.19;5036279;27;102373;-53
2022/10/29 07:53:31;;;;;;;76.90;72.75;;;;;;;16.02;73.39;102236.50;5031012;27;103908;-53
2022/10/29 07:55:58;;;;;;;75.45;71.35;;;;;;;16.03;73.77;102235.41;5036314;27;102456;-53
2022/10/29 07:58:27;;;;;;;81.90;77.57;;;;;;;16.04;73.55;102238.97;5033631;27;102522;-53
2022/10/29 08:00:58;;;;;;;75.40;71.35;;;;;;;16.05;73.75;102235.16;5034533;27;102320;-53
2022/10/29 08:03:25;;;;;;;72.80;68.90;;;;;;;16.05;73.79;102225.00;5027134;28;103913;-53
2022/10/29 08:05:55;;;;;;;65.18;61.47;;;;;;;16.07;73.19;102233.75;5026589;28;102446;-53
2022/10/29 08:08:22;;;;;;;75.13;71.07;;;;;;;16.09;73.18;102228.84;5033896;27;102683;-53
2022/10/29 08:10:48;;;;;;;71.85;68.07;;;;;;;16.15;73.52;102228.84;5029653;27;102249;-53
2022/10/29 08:13:15;;;;;;;70.03;66.30;;;;;;;16.15;73.11;102221.41;5027022;27;104168;-53
2022/10/29 08:15:46;;;;;;;69.88;66.07;;;;;;;16.16;73.16;102219.53;5036224;27;102322;-53
2022/10/29 08:18:15;;;;;;;70.20;66.43;;;;;;;16.18;72.89;102222.81;5029500;27;102044;-53
2022/10/29 08:20:42;;;;;;;70.72;66.70;;;;;;;16.19;72.83;102224.44;5014651;27;102311;-53
2022/10/29 08:23:12;;;;;;;69.88;66.13;;;;;;;16.21;72.77;102222.25;5035640;27;103982;-53
2022/10/29 08:25:41;;;;;;;74.38;70.38;;;;;;;16.21;72.66;102222.25;5036429;27;102428;-53
2022/10/29 08:28:09;;;;;;;59.25;56.05;;;;;;;16.20;72.95;102215.13;5030298;27;102385;-53
2022/10/29 08:30:36;;;;;;;71.25;67.53;;;;;;;16.21;72.84;102227.75;5022499;27;102789;-53
2022/10/29 08:33:05;;;;;;;66.45;62.88;;;;;;;16.21;72.59;102223.09;5031763;27;103929;-53
2022/10/29 08:35:33;;;;;;;70.90;67.13;;;;;;;16.23;73.01;102220.91;5035819;27;101974;-53
2022/10/29 08:38:00;;;;;;;63.60;60.07;;;;;;;16.22;72.63;102221.97;5035293;27;102418;-53
2022/10/29 08:40:29;;;;;;;68.07;64.40;;;;;;;16.23;72.73;102220.91;5035091;27;102952;-53
2022/10/29 08:43:32;;;;;;;67.72;64.03;;;;;;;16.24;72.88;102210.72;5032872;27;104840;-53
2022/10/29 08:45:59;;;;;;;64.72;61.25;;;;;;;16.24;72.82;102206.06;5034060;27;102349;-53
2022/10/29 08:48:45;;;;;;;65.50;62.00;;;;;;;16.25;72.54;102209.63;5034289;27;102223;-53
2022/10/29 08:51:20;;;;;;;67.80;64.15;;;;;;;16.26;72.72;102194.78;5029338;27;102626;-53
2022/10/29 08:53:53;;;;;;;65.07;61.55;;;;;;;16.27;72.89;102199.19;5024469;28;103974;-53
2022/10/29 08:56:24;;;;;;;65.82;62.25;;;;;;;16.26;72.74;102203.88;5027712;28;102718;-53
2022/10/29 08:58:56;;;;;;;66.78;63.20;;;;;;;16.27;72.59;102194.53;5034317;27;102247;-53
2022/10/29 09:01:23;;;;;;;61.08;57.72;;;;;;;16.26;72.83;102192.88;5036234;27;102187;-53
2022/10/29 09:03:50;;;;;;;70.95;67.13;;;;;;;16.27;72.42;102183.53;5034729;27;104024;-53
2022/10/29 09:06:26;;;;;;;66.97;63.40;;;;;;;16.28;73.02;102195.34;5035972;27;102644;-53
2022/10/29 09:09:20;;;;;;;65.03;61.50;;;;;;;16.27;72.55;102183.53;5035567;27;102394;-53
2022/10/29 09:12:01;;;;;;;64.43;60.90;;;;;;;16.28;73.06;102178.88;5035792;27;102187;-53
2022/10/29 09:14:43;;;;;;;60.58;57.35;;;;;;;16.28;72.48;102184.34;5034850;27;103927;-53
2022/10/29 09:17:21;;;;;;;67.90;64.22;;;;;;;16.28;73.08;102184.34;5030997;27;102259;-53
2022/10/29 09:20:18;;;;;;;61.92;58.63;;;;;;;16.27;72.60;102172.56;5032906;27;102337;-53
2022/10/29 09:22:55;;;;;;;60.33;57.05;;;;;;;16.28;72.53;102173.38;5030239;27;102353;-53
2022/10/29 09:25:28;;;;;;;64.00;60.60;;;;;;;16.27;72.68;102171.72;5028106;28;104105;-54
2022/10/29 09:28:12;;;;;;;65.38;61.63;;;;;;;16.28;73.08;102167.88;5035771;27;102055;-53
2022/10/29 09:30:49;;;;;;;62.70;59.08;;;;;;;16.28;73.03;102160.47;5034782;27;102237;-54
2022/10/29 09:33:19;;;;;;;66.50;62.90;;;;;;;16.27;72.81;102160.75;5036221;27;102237;-53
2022/10/29 09:35:51;;;;;;;66.88;63.28;;;;;;;16.27;72.66;102155.25;5034570;27;104761;-53
2022/10/29 09:38:24;;;;;;;70.03;66.10;;;;;;;16.27;72.45;102152.50;5035226;27;102447;-53
2022/10/29 09:40:50;;;;;;;62.67;59.22;;;;;;;16.27;72.42;102156.06;5032183;27;102476;-53
2022/10/29 09:43:36;;;;;;;67.53;63.88;;;;;;;16.26;72.40;102153.59;5036207;27;102219;-53
2022/10/29 09:46:11;;;;;;;64.80;61.33;;;;;;;16.25;72.79;102154.69;5034375;27;104056;-53
2022/10/29 09:48:46;;;;;;;65.47;61.70;;;;;;;16.27;72.84;102160.75;5035157;27;102323;-53
2022/10/29 09:51:24;;;;;;;64.50;60.88;;;;;;;16.24;72.66;102148.38;5010547;27;103867;-53
2022/10/29 09:53:53;;;;;;;64.80;60.87;;;;;;;16.24;72.10;102140.13;5008700;28;102068;-53
2022/10/29 09:56:19;;;;;;;67.18;63.28;;;;;;;16.24;72.54;102142.06;5002640;27;103969;-53
2022/10/29 09:58:52;;;;;;;67.07;62.97;;;;;;;16.24;72.61;102136.56;5024109;27;102136;-53
2022/10/29 10:01:18;;;;;;;63.28;59.72;;;;;;;16.24;72.26;102136.56;5020745;28;102012;-53
2022/10/29 10:03:52;;;;;;;70.63;66.68;;;;;;;16.23;72.29;102132.19;5015682;28;102615;-53
2022/10/29 10:06:19;;;;;;;62.38;58.83;;;;;;;16.24;72.49;102128.31;4995316;28;103877;-53
2022/10/29 10:09:00;;;;;;;;;;;;;;;16.22;72.71;102125.84;5008142;28;102529;-54
2022/10/29 10:11:34;;;;;;;59.03;55.70;;;;;;;16.22;72.81;102125.00;5008922;28;102300;-53
2022/10/29 10:14:06;;;;;;;62.88;59.30;;;;;;;16.22;72.52;102125.00;5015927;28;102306;-53
2022/10/29 10:16:33;;;;;;;69.18;65.40;;;;;;;16.22;72.20;102119.53;5034310;27;104005;-53
2022/10/29 10:19:00;;;;;;;71.57;67.63;;;;;;;16.22;72.67;102116.78;5017208;27;101950;-53
2022/10/29 10:21:28;;;;;;;65.20;61.60;;;;;;;16.22;72.77;102114.03;5012361;27;102326;-53
2022/10/29 10:23:56;;;;;;;65.60;61.85;;;;;;;16.23;72.21;102112.94;5026275;27;102378;-53
2022/10/29 10:26:42;;;;;;;66.72;63.00;;;;;;;16.21;72.01;102106.91;5032955;27;104117;-53
2022/10/29 10:29:12;;;;;;;57.50;54.20;;;;;;;16.20;72.11;102111.56;5028544;27;102335;-53
2022/10/29 10:31:39;;;;;;;68.68;64.75;;;;;;;16.21;72.16;102106.91;5036180;27;102367;-53
2022/10/29 10:34:15;;;;;;;69.00;65.18;;;;;;;16.20;71.98;102100.59;5039088;27;102728;-53
2022/10/29 10:36:45;;;;;;;61.90;58.13;;;;;;;16.20;72.47;102099.75;5037377;27;103861;-53
2022/10/29 10:39:26;;;;;;;61.38;57.92;;;;;;;16.19;72.51;102087.09;5038192;27;102374;-53
2022/10/29 10:41:56;;;;;;;65.50;61.80;;;;;;;16.19;72.59;102087.09;5034199;27;102314;-54
2022/10/29 10:44:23;;;;;;;64.95;61.28;;;;;;;16.18;72.12;102079.97;5038345;27;102342;-53
2022/10/29 10:46:53;;;;;;;70.35;66.43;;;;;;;16.17;72.57;102083.84;5037395;27;103714;-53
2022/10/29 10:49:29;;;;;;;67.00;63.38;;;;;;;16.17;71.90;102078.34;5037951;27;102219;-53
2022/10/29 10:51:56;;;;;;;69.72;65.82;;;;;;;16.17;72.36;102067.34;5037477;27;101989;-53
2022/10/29 10:54:30;;;;;;;61.13;57.75;;;;;;;16.16;71.94;102066.53;5038989;27;102432;-53
2022/10/29 10:57:00;;;;;;;58.97;55.63;;;;;;;16.16;72.07;102066.53;5037333;27;104112;-53
2022/10/29 10:59:39;;;;;;;63.10;59.58;;;;;;;16.15;71.92;102053.06;5037036;27;102316;-53
2022/10/29 11:02:18;;;;;;;60.13;56.63;;;;;;;16.15;72.19;102053.88;5037201;27;102230;-53
2022/10/29 11:04:53;;;;;;;58.65;55.25;;;;;;;16.14;72.16;102046.75;5038913;27;102379;-53
2022/10/29 11:07:22;;;;;;;56.85;53.58;;;;;;;16.15;71.80;102047.56;5035887;27;107946;-53
2022/10/29 11:09:54;;;;;;;57.05;53.78;;;;;;;16.14;71.82;102051.41;5038072;27;102242;-53
2022/10/29 11:12:31;;;;;;;65.88;62.10;;;;;;;16.14;71.83;102051.41;5037571;27;102670;-53